Time;durP1;ratioP1;P1;durP2;ratioP2;P2;SDS_P1;SDS_P2;PMS_P1;PMS_P2;Temp;Humidity;BMP_temperature;BMP_pressure;BME280_temperature;BME280_humidity;BME280_pressure;Samples;Min_cycle;Max_cycle;Signal;HPM_P1;HPM_P2
2023/05/28 00:00:44;;;;;;;14.07;6.17;;;;;;;;;;5034840;28;20179;-69
2023/05/28 00:03:10;;;;;;;13.93;6.53;;;;;;;;;;5034191;28;20636;-69
2023/05/28 00:05:35;;;;;;;12.33;7.03;;;;;;;;;;5016313;28;20186;-69
2023/05/28 00:08:01;;;;;;;12.13;6.70;;;;;;;;;;5034580;28;20179;-69
2023/05/28 00:10:27;;;;;;;14.17;6.67;;;;;;;;;;5016349;28;20547;-69
2023/05/28 00:12:53;;;;;;;15.37;6.83;;;;;;;;;;5016320;28;20198;-68
2023/05/28 00:15:19;;;;;;;12.43;7.00;;;;;;;;;;5015539;28;20229;-69
2023/05/28 00:17:45;;;;;;;12.93;6.67;;;;;;;;;;5015859;28;20754;-69
2023/05/28 00:20:11;;;;;;;13.43;6.97;;;;;;;;;;5015763;28;20207;-69
2023/05/28 00:22:38;;;;;;;17.50;7.40;;;;;;;;;;5037469;28;20313;-69
2023/05/28 00:25:04;;;;;;;11.27;6.47;;;;;;;;;;5019739;28;20194;-69
2023/05/28 00:27:30;;;;;;;13.67;6.70;;;;;;;;;;5024053;28;20179;-69
2023/05/28 00:29:56;;;;;;;11.33;6.73;;;;;;;;;;5037634;28;20186;-69
2023/05/28 00:32:22;;;;;;;19.90;7.13;;;;;;;;;;5019381;28;20654;-69
2023/05/28 00:34:48;;;;;;;17.40;7.70;;;;;;;;;;5037459;28;20178;-69
2023/05/28 00:37:15;;;;;;;10.80;6.77;;;;;;;;;;5037500;28;20272;-69
2023/05/28 00:39:41;;;;;;;14.67;7.40;;;;;;;;;;5019849;28;20612;-69
2023/05/28 00:42:08;;;;;;;14.30;7.33;;;;;;;;;;5019812;28;20230;-69
2023/05/28 00:44:35;;;;;;;10.47;6.80;;;;;;;;;;5037544;28;20175;-69
2023/05/28 00:47:01;;;;;;;14.10;7.00;;;;;;;;;;5020445;28;20187;-69
2023/05/28 00:49:27;;;;;;;13.47;6.27;;;;;;;;;;5038275;28;20210;-69
2023/05/28 00:51:55;;;;;;;10.73;6.87;;;;;;;;;;5038127;28;20203;-69
2023/05/28 00:54:21;;;;;;;13.43;7.03;;;;;;;;;;5038045;28;20175;-69
2023/05/28 00:56:48;;;;;;;9.27;6.40;;;;;;;;;;5037455;28;20209;-69
2023/05/28 00:59:13;;;;;;;13.70;7.37;;;;;;;;;;5019773;28;20175;-69
2023/05/28 01:01:40;;;;;;;15.97;6.70;;;;;;;;;;5036789;28;20333;-69
2023/05/28 01:04:06;;;;;;;11.23;6.50;;;;;;;;;;5019318;28;20182;-69
2023/05/28 01:06:32;;;;;;;14.13;6.63;;;;;;;;;;5019344;28;20180;-69
2023/05/28 01:08:58;;;;;;;11.77;5.97;;;;;;;;;;5037481;28;20175;-69
2023/05/28 01:11:26;;;;;;;9.93;6.57;;;;;;;;;;5019527;28;20207;-69
2023/05/28 01:13:52;;;;;;;12.20;6.83;;;;;;;;;;5020426;28;20218;-69
2023/05/28 01:16:18;;;;;;;13.40;7.03;;;;;;;;;;5041912;28;20241;-69
2023/05/28 01:18:44;;;;;;;14.80;7.63;;;;;;;;;;5020347;28;20175;-69
2023/05/28 01:21:11;;;;;;;14.63;7.67;;;;;;;;;;5025063;28;20175;-69
2023/05/28 01:23:45;;;;;;;13.77;7.10;;;;;;;;;;5023037;28;20236;-68
2023/05/28 01:26:15;;;;;;;13.20;7.10;;;;;;;;;;5022921;28;20178;-69
2023/05/28 01:28:45;;;;;;;13.03;7.33;;;;;;;;;;5038131;28;20181;-69
2023/05/28 01:31:11;;;;;;;12.57;7.40;;;;;;;;;;5020402;28;20175;-69
2023/05/28 01:33:38;;;;;;;16.20;7.60;;;;;;;;;;5037700;28;20241;-69
2023/05/28 01:36:07;;;;;;;12.73;7.23;;;;;;;;;;5038899;28;20230;-68
2023/05/28 01:38:34;;;;;;;13.90;7.37;;;;;;;;;;5042012;28;20262;-68
2023/05/28 01:41:00;;;;;;;11.40;7.30;;;;;;;;;;5024829;28;20233;-68
2023/05/28 01:43:27;;;;;;;15.00;8.10;;;;;;;;;;5031454;28;20179;-68
2023/05/28 01:45:53;;;;;;;15.37;7.67;;;;;;;;;;5042672;28;20174;-69
2023/05/28 01:48:20;;;;;;;15.13;7.60;;;;;;;;;;5035714;28;20189;-69
2023/05/28 01:50:46;;;;;;;14.87;7.87;;;;;;;;;;5038905;28;20186;-68
2023/05/28 01:53:12;;;;;;;15.63;7.53;;;;;;;;;;5020065;28;20199;-68
2023/05/28 01:55:38;;;;;;;11.93;7.43;;;;;;;;;;5020076;28;20203;-68
2023/05/28 01:58:05;;;;;;;14.00;7.10;;;;;;;;;;5037533;28;20241;-68
2023/05/28 02:00:32;;;;;;;14.83;7.40;;;;;;;;;;5037147;28;20201;-68
2023/05/28 02:02:58;;;;;;;11.13;7.20;;;;;;;;;;5036621;28;20731;-68
2023/05/28 02:05:24;;;;;;;12.63;7.23;;;;;;;;;;5019343;28;20183;-68
2023/05/28 02:07:50;;;;;;;14.07;7.43;;;;;;;;;;5036753;28;20179;-68
2023/05/28 02:10:16;;;;;;;14.67;8.10;;;;;;;;;;5018963;28;20286;-68
2023/05/28 02:12:42;;;;;;;16.47;8.20;;;;;;;;;;5037590;28;20206;-68
2023/05/28 02:15:08;;;;;;;15.57;8.47;;;;;;;;;;5039639;28;20186;-68
2023/05/28 02:17:35;;;;;;;14.83;8.43;;;;;;;;;;5037311;28;20179;-68
2023/05/28 02:20:01;;;;;;;12.23;7.63;;;;;;;;;;5036830;28;20262;-69
2023/05/28 02:22:27;;;;;;;15.87;7.93;;;;;;;;;;5018939;28;20234;-68
2023/05/28 02:24:52;;;;;;;15.20;7.87;;;;;;;;;;5019087;28;20184;-68
2023/05/28 02:27:19;;;;;;;14.37;7.93;;;;;;;;;;5019007;28;20187;-68
2023/05/28 02:29:46;;;;;;;14.90;7.83;;;;;;;;;;5036568;28;20730;-70
2023/05/28 02:32:12;;;;;;;13.60;7.60;;;;;;;;;;5037073;28;20195;-69
2023/05/28 02:34:38;;;;;;;17.50;8.33;;;;;;;;;;5020309;28;20187;-69
2023/05/28 02:37:04;;;;;;;17.80;9.30;;;;;;;;;;5039003;28;20206;-69
2023/05/28 02:39:31;;;;;;;15.00;8.17;;;;;;;;;;5052441;28;20183;-69
2023/05/28 02:41:57;;;;;;;15.47;8.30;;;;;;;;;;5055242;28;20175;-69
2023/05/28 02:44:23;;;;;;;17.43;8.93;;;;;;;;;;5032628;28;20186;-68
2023/05/28 02:46:49;;;;;;;19.00;8.90;;;;;;;;;;5046355;28;20179;-68
2023/05/28 02:49:15;;;;;;;15.23;8.80;;;;;;;;;;5027818;28;20254;-68
2023/05/28 02:51:41;;;;;;;16.43;9.43;;;;;;;;;;5024083;28;20233;-68
2023/05/28 02:54:07;;;;;;;16.70;9.37;;;;;;;;;;5022208;28;20724;-68
2023/05/28 02:56:33;;;;;;;18.37;8.57;;;;;;;;;;5039458;28;20265;-68
2023/05/28 02:58:59;;;;;;;17.80;10.00;;;;;;;;;;5038314;28;20650;-68
2023/05/28 03:01:26;;;;;;;15.97;8.40;;;;;;;;;;5021224;28;20223;-68
2023/05/28 03:03:52;;;;;;;15.37;9.07;;;;;;;;;;5040371;28;20159;-68
2023/05/28 03:06:18;;;;;;;15.87;8.70;;;;;;;;;;5020801;28;20189;-68
2023/05/28 03:08:44;;;;;;;15.77;8.60;;;;;;;;;;5023100;28;20187;-68
2023/05/28 03:11:10;;;;;;;17.23;8.77;;;;;;;;;;5039175;28;20237;-68
2023/05/28 03:13:36;;;;;;;16.93;8.70;;;;;;;;;;5039315;28;20242;-68
2023/05/28 03:16:02;;;;;;;12.00;8.83;;;;;;;;;;5040996;28;20225;-68
2023/05/28 03:18:28;;;;;;;14.57;8.27;;;;;;;;;;5041303;28;20544;-68
2023/05/28 03:20:54;;;;;;;13.87;9.03;;;;;;;;;;5036968;28;20286;-68
2023/05/28 03:23:20;;;;;;;14.57;8.37;;;;;;;;;;5018275;28;20565;-68
2023/05/28 03:25:46;;;;;;;15.07;8.60;;;;;;;;;;5018518;28;20183;-68
2023/05/28 03:28:12;;;;;;;14.33;8.70;;;;;;;;;;5017999;28;20190;-68
2023/05/28 03:30:38;;;;;;;18.40;8.67;;;;;;;;;;5018388;28;20207;-69
2023/05/28 03:33:04;;;;;;;16.73;8.67;;;;;;;;;;5018128;28;20610;-68
2023/05/28 03:35:30;;;;;;;14.70;8.87;;;;;;;;;;5035873;28;20708;-68
2023/05/28 03:37:56;;;;;;;13.43;8.37;;;;;;;;;;5036125;28;20190;-67
2023/05/28 03:40:22;;;;;;;18.73;8.73;;;;;;;;;;5036648;28;20237;-68
2023/05/28 03:42:48;;;;;;;19.83;8.33;;;;;;;;;;5018859;28;20230;-68
2023/05/28 03:45:15;;;;;;;14.27;9.07;;;;;;;;;;5035993;28;20242;-67
2023/05/28 03:47:40;;;;;;;16.87;9.13;;;;;;;;;;5018758;28;20271;-68
2023/05/28 03:50:07;;;;;;;14.90;8.80;;;;;;;;;;5036237;28;20215;-68
2023/05/28 03:52:33;;;;;;;18.93;8.33;;;;;;;;;;5018723;28;20263;-68
2023/05/28 03:54:59;;;;;;;14.43;8.43;;;;;;;;;;5017787;28;20538;-68
2023/05/28 03:57:25;;;;;;;18.17;8.67;;;;;;;;;;5018769;28;20167;-68
2023/05/28 03:59:51;;;;;;;14.50;9.10;;;;;;;;;;5038006;28;20175;-68
2023/05/28 04:02:17;;;;;;;16.60;8.30;;;;;;;;;;5022012;28;20225;-68
2023/05/28 04:04:43;;;;;;;14.43;8.87;;;;;;;;;;5035690;28;20171;-68
2023/05/28 04:07:08;;;;;;;12.87;8.27;;;;;;;;;;5035674;28;20230;-68
2023/05/28 04:09:34;;;;;;;14.70;8.30;;;;;;;;;;5036875;28;20258;-68
2023/05/28 04:12:00;;;;;;;16.37;8.43;;;;;;;;;;5018404;28;20203;-69
2023/05/28 04:14:26;;;;;;;16.07;8.07;;;;;;;;;;5036317;28;20190;-68
2023/05/28 04:16:53;;;;;;;14.53;8.47;;;;;;;;;;5018362;28;20211;-68
2023/05/28 04:19:19;;;;;;;19.13;8.00;;;;;;;;;;5018984;28;20668;-68
2023/05/28 04:21:45;;;;;;;14.07;7.67;;;;;;;;;;5036541;28;20198;-68
2023/05/28 04:24:11;;;;;;;16.60;8.20;;;;;;;;;;5018678;28;20179;-68
2023/05/28 04:26:37;;;;;;;12.47;7.90;;;;;;;;;;5036482;28;20655;-67
2023/05/28 04:29:03;;;;;;;14.90;7.83;;;;;;;;;;5036378;28;20627;-68
2023/05/28 04:31:29;;;;;;;14.30;7.73;;;;;;;;;;5018376;28;20207;-68
2023/05/28 04:33:55;;;;;;;12.27;7.90;;;;;;;;;;5019557;28;20270;-68
2023/05/28 04:36:29;;;;;;;11.73;7.57;;;;;;;;;;5037917;28;20203;-67
2023/05/28 04:38:56;;;;;;;14.57;8.33;;;;;;;;;;5038496;28;20166;-67
2023/05/28 04:41:23;;;;;;;16.33;8.23;;;;;;;;;;5037815;28;20573;-68
2023/05/28 04:43:49;;;;;;;14.27;8.27;;;;;;;;;;5021109;28;20175;-68
2023/05/28 04:46:16;;;;;;;17.37;8.63;;;;;;;;;;5039184;28;20247;-68
2023/05/28 04:48:41;;;;;;;12.07;8.27;;;;;;;;;;5044617;28;20193;-68
2023/05/28 04:51:08;;;;;;;12.90;8.20;;;;;;;;;;5045682;28;20199;-68
2023/05/28 04:53:34;;;;;;;12.03;7.70;;;;;;;;;;5043358;28;20233;-68
2023/05/28 04:56:00;;;;;;;12.77;7.73;;;;;;;;;;5036459;28;20199;-67
2023/05/28 04:58:26;;;;;;;13.87;7.93;;;;;;;;;;5035697;28;20179;-67
2023/05/28 05:00:52;;;;;;;11.20;7.80;;;;;;;;;;5018060;28;20688;-67
2023/05/28 05:03:18;;;;;;;17.17;8.73;;;;;;;;;;5035324;28;20648;-68
2023/05/28 05:05:44;;;;;;;13.77;7.53;;;;;;;;;;5017855;28;20366;-68
2023/05/28 05:08:13;;;;;;;13.33;7.43;;;;;;;;;;5021229;28;20222;-68
2023/05/28 05:10:39;;;;;;;15.50;8.37;;;;;;;;;;5039195;28;20182;-68
2023/05/28 05:13:05;;;;;;;15.90;7.37;;;;;;;;;;5021201;28;20207;-68
2023/05/28 05:15:32;;;;;;;10.90;7.73;;;;;;;;;;5039500;28;20264;-68
2023/05/28 05:17:58;;;;;;;14.13;7.93;;;;;;;;;;5021757;28;20182;-68
2023/05/28 05:20:24;;;;;;;14.20;7.63;;;;;;;;;;5038726;28;20179;-68
2023/05/28 05:22:50;;;;;;;11.97;7.73;;;;;;;;;;5021941;28;20199;-68
2023/05/28 05:25:16;;;;;;;13.93;8.33;;;;;;;;;;5040456;28;20176;-68
2023/05/28 05:27:42;;;;;;;16.10;8.60;;;;;;;;;;5040115;28;20250;-68
2023/05/28 05:30:08;;;;;;;18.63;9.07;;;;;;;;;;5039456;28;20270;-68
2023/05/28 05:32:34;;;;;;;15.13;8.33;;;;;;;;;;5038430;28;20195;-68
2023/05/28 05:35:00;;;;;;;16.90;9.00;;;;;;;;;;5039524;28;20178;-68
2023/05/28 05:37:26;;;;;;;12.37;8.13;;;;;;;;;;5038498;28;20246;-68
2023/05/28 05:39:52;;;;;;;16.63;9.10;;;;;;;;;;5039154;28;20175;-68
2023/05/28 05:42:18;;;;;;;15.73;8.87;;;;;;;;;;5038609;28;20206;-67
2023/05/28 05:44:44;;;;;;;13.17;8.87;;;;;;;;;;5039216;28;20180;-68
2023/05/28 05:47:10;;;;;;;11.53;8.00;;;;;;;;;;5047175;28;20175;-68
2023/05/28 05:49:36;;;;;;;15.50;8.80;;;;;;;;;;5047463;28;20715;-68
2023/05/28 05:52:02;;;;;;;13.87;9.17;;;;;;;;;;5031906;28;20570;-68
2023/05/28 05:54:28;;;;;;;18.27;10.83;;;;;;;;;;5054135;28;20183;-68
2023/05/28 05:56:54;;;;;;;15.67;11.13;;;;;;;;;;5054339;28;20222;-68
2023/05/28 05:59:20;;;;;;;19.47;10.07;;;;;;;;;;5054479;28;20175;-68
2023/05/28 06:01:46;;;;;;;22.17;11.07;;;;;;;;;;5040937;28;20290;-68
2023/05/28 06:04:12;;;;;;;15.50;9.87;;;;;;;;;;5021216;28;20178;-68
2023/05/28 06:06:38;;;;;;;19.50;10.87;;;;;;;;;;5020570;28;20234;-68
2023/05/28 06:09:04;;;;;;;19.10;10.60;;;;;;;;;;5038205;28;20568;-68
2023/05/28 06:11:30;;;;;;;20.60;9.10;;;;;;;;;;5038574;28;20653;-68
2023/05/28 06:13:56;;;;;;;20.23;10.17;;;;;;;;;;5019850;28;20298;-68
2023/05/28 06:16:22;;;;;;;22.77;9.77;;;;;;;;;;5019441;28;20581;-68
2023/05/28 06:18:48;;;;;;;15.80;8.93;;;;;;;;;;5036480;28;20176;-68
2023/05/28 06:21:14;;;;;;;18.50;10.67;;;;;;;;;;5039289;28;20207;-69
2023/05/28 06:23:40;;;;;;;15.40;9.40;;;;;;;;;;5035098;28;20180;-68
2023/05/28 06:26:06;;;;;;;14.30;9.53;;;;;;;;;;5017179;28;20190;-68
2023/05/28 06:28:32;;;;;;;14.90;9.23;;;;;;;;;;5035355;28;20179;-68
2023/05/28 06:30:58;;;;;;;12.83;9.30;;;;;;;;;;5017569;28;20183;-68
2023/05/28 06:33:24;;;;;;;16.10;8.67;;;;;;;;;;5035106;28;20645;-68
2023/05/28 06:35:50;;;;;;;16.67;10.07;;;;;;;;;;5035040;28;20202;-68
2023/05/28 06:38:16;;;;;;;13.80;8.47;;;;;;;;;;5036063;28;20641;-68
2023/05/28 06:40:42;;;;;;;20.00;11.17;;;;;;;;;;5035125;28;20556;-68
2023/05/28 06:43:08;;;;;;;24.23;11.07;;;;;;;;;;5034467;28;20688;-68
2023/05/28 06:45:34;;;;;;;16.33;10.27;;;;;;;;;;5034677;28;20179;-68
2023/05/28 06:48:00;;;;;;;18.23;9.30;;;;;;;;;;5034389;28;20560;-68
2023/05/28 06:50:26;;;;;;;14.23;8.60;;;;;;;;;;5016694;28;20680;-68
2023/05/28 06:52:52;;;;;;;15.00;8.50;;;;;;;;;;5034357;28;20689;-70
2023/05/28 06:55:18;;;;;;;17.00;8.23;;;;;;;;;;5034849;28;20171;-69
2023/05/28 06:57:44;;;;;;;11.10;7.97;;;;;;;;;;5034468;28;20606;-68
2023/05/28 07:00:16;;;;;;;12.27;7.80;;;;;;;;;;5034098;28;20207;-69
2023/05/28 07:02:42;;;;;;;14.00;8.27;;;;;;;;;;5034075;28;20293;-68
2023/05/28 07:05:09;;;;;;;13.57;7.30;;;;;;;;;;5034174;28;20180;-69
2023/05/28 07:07:36;;;;;;;18.57;8.10;;;;;;;;;;5034176;28;20186;-69
2023/05/28 07:10:02;;;;;;;12.63;7.60;;;;;;;;;;5034208;28;20187;-69
2023/05/28 07:12:29;;;;;;;12.10;6.90;;;;;;;;;;5034245;28;20199;-69
2023/05/28 07:14:55;;;;;;;12.13;6.90;;;;;;;;;;5034131;28;20528;-68
2023/05/28 07:17:21;;;;;;;10.60;7.10;;;;;;;;;;5033758;28;20207;-68
2023/05/28 07:19:47;;;;;;;11.77;6.63;;;;;;;;;;5034194;28;20187;-69
2023/05/28 07:22:13;;;;;;;10.57;7.10;;;;;;;;;;5016188;28;20198;-68
2023/05/28 07:24:39;;;;;;;12.73;6.90;;;;;;;;;;5016585;28;20562;-69
2023/05/28 07:27:06;;;;;;;14.57;8.10;;;;;;;;;;5016126;28;20218;-68
2023/05/28 07:29:32;;;;;;;14.43;7.70;;;;;;;;;;5033826;28;20202;-69
2023/05/28 07:31:58;;;;;;;13.37;8.03;;;;;;;;;;5033743;28;20226;-68
2023/05/28 07:34:24;;;;;;;18.97;8.27;;;;;;;;;;5034293;28;20189;-68
2023/05/28 07:36:50;;;;;;;15.83;8.23;;;;;;;;;;5033280;28;20203;-68
2023/05/28 07:39:16;;;;;;;16.13;7.47;;;;;;;;;;5033596;28;20641;-68
2023/05/28 07:41:41;;;;;;;30.90;9.00;;;;;;;;;;5033512;28;20205;-68
2023/05/28 07:44:07;;;;;;;15.27;8.43;;;;;;;;;;5015788;28;20563;-69
2023/05/28 07:46:34;;;;;;;15.23;7.87;;;;;;;;;;5015855;28;20675;-69
2023/05/28 07:49:00;;;;;;;15.27;7.50;;;;;;;;;;5033466;28;20555;-68
2023/05/28 07:51:26;;;;;;;13.53;7.50;;;;;;;;;;5015875;28;20746;-68
2023/05/28 07:53:52;;;;;;;14.77;7.10;;;;;;;;;;5016842;28;20183;-68
2023/05/28 07:56:18;;;;;;;14.87;7.40;;;;;;;;;;5035750;28;20250;-68
2023/05/28 07:58:45;;;;;;;13.63;6.97;;;;;;;;;;5033917;28;20254;-68
2023/05/28 08:01:11;;;;;;;12.03;6.80;;;;;;;;;;5017476;28;20183;-68
2023/05/28 08:03:37;;;;;;;11.03;6.30;;;;;;;;;;5041571;28;20242;-68
2023/05/28 08:06:04;;;;;;;10.93;6.37;;;;;;;;;;5034874;28;20232;-68
2023/05/28 08:08:30;;;;;;;11.13;6.77;;;;;;;;;;5033312;28;20179;-68
2023/05/28 08:10:56;;;;;;;10.93;6.27;;;;;;;;;;5033116;28;20183;-69
2023/05/28 08:13:22;;;;;;;14.87;6.37;;;;;;;;;;5033365;28;20206;-69
2023/05/28 08:15:48;;;;;;;12.63;6.83;;;;;;;;;;5032514;28;20868;-68
2023/05/28 08:18:14;;;;;;;10.10;6.07;;;;;;;;;;5014143;28;20730;-68
2023/05/28 08:20:41;;;;;;;10.43;5.90;;;;;;;;;;5033243;28;20190;-69
2023/05/28 08:23:07;;;;;;;12.37;6.20;;;;;;;;;;5032979;28;20191;-69
2023/05/28 08:25:33;;;;;;;12.30;5.97;;;;;;;;;;5015144;28;20175;-69
2023/05/28 08:27:59;;;;;;;8.13;5.90;;;;;;;;;;5032943;28;20183;-68
2023/05/28 08:30:26;;;;;;;13.38;6.68;;;;;;;;;;5032357;28;20888;-68
2023/05/28 08:32:52;;;;;;;9.50;6.30;;;;;;;;;;5032488;28;20876;-68
2023/05/28 08:35:18;;;;;;;10.27;6.17;;;;;;;;;;5032906;28;20179;-68
2023/05/28 08:37:44;;;;;;;9.77;5.27;;;;;;;;;;5032940;28;20579;-69
2023/05/28 08:40:10;;;;;;;11.33;5.73;;;;;;;;;;5015239;28;20715;-69
2023/05/28 08:42:36;;;;;;;11.33;5.90;;;;;;;;;;5035786;28;20241;-69
2023/05/28 08:45:03;;;;;;;10.73;5.67;;;;;;;;;;5019598;28;20225;-69
2023/05/28 08:47:32;;;;;;;12.07;5.77;;;;;;;;;;5037328;28;20178;-69
2023/05/28 08:50:00;;;;;;;10.10;5.37;;;;;;;;;;5019545;28;20186;-69
2023/05/28 08:52:26;;;;;;;11.40;5.20;;;;;;;;;;5019940;28;20199;-69
2023/05/28 08:54:52;;;;;;;10.20;5.03;;;;;;;;;;5019342;28;20183;-69
2023/05/28 08:57:19;;;;;;;10.60;5.10;;;;;;;;;;5018941;28;20210;-69
2023/05/28 08:59:45;;;;;;;8.73;5.17;;;;;;;;;;5036612;28;20236;-69
2023/05/28 09:02:12;;;;;;;9.23;5.50;;;;;;;;;;5036518;28;20214;-69
2023/05/28 09:04:40;;;;;;;10.87;5.27;;;;;;;;;;5018667;28;20183;-69
2023/05/28 09:07:05;;;;;;;11.03;4.70;;;;;;;;;;5036386;28;20183;-69
2023/05/28 09:09:32;;;;;;;11.00;5.30;;;;;;;;;;5036540;28;20688;-68
2023/05/28 09:12:03;;;;;;;9.33;5.20;;;;;;;;;;5036282;28;20203;-69
2023/05/28 09:14:30;;;;;;;8.17;4.33;;;;;;;;;;5036554;28;20164;-69
2023/05/28 09:16:56;;;;;;;12.70;4.80;;;;;;;;;;5036429;28;20205;-68
2023/05/28 09:19:22;;;;;;;6.47;4.43;;;;;;;;;;5036122;28;20206;-68
2023/05/28 09:21:56;;;;;;;9.23;5.17;;;;;;;;;;5018372;28;20194;-69
2023/05/28 09:24:24;;;;;;;12.13;4.57;;;;;;;;;;5036283;28;20171;-69
2023/05/28 09:26:50;;;;;;;10.13;4.70;;;;;;;;;;5036675;28;20183;-69
2023/05/28 09:29:16;;;;;;;7.60;4.70;;;;;;;;;;5037113;28;20178;-68
2023/05/28 09:31:42;;;;;;;7.17;4.37;;;;;;;;;;5036204;28;20199;-69
2023/05/28 09:34:08;;;;;;;7.83;4.63;;;;;;;;;;5035920;28;20179;-69
2023/05/28 09:36:36;;;;;;;7.57;4.40;;;;;;;;;;5036060;28;20209;-70
2023/05/28 09:39:07;;;;;;;10.37;4.77;;;;;;;;;;5035805;28;20322;-69
2023/05/28 09:41:34;;;;;;;9.23;4.60;;;;;;;;;;5018206;28;20210;-68
2023/05/28 09:44:01;;;;;;;7.50;5.10;;;;;;;;;;5035948;28;20182;-68
2023/05/28 09:46:30;;;;;;;9.70;4.87;;;;;;;;;;5035780;28;20206;-69
2023/05/28 09:48:57;;;;;;;7.20;4.93;;;;;;;;;;5035841;28;20189;-68
2023/05/28 09:51:25;;;;;;;10.17;4.40;;;;;;;;;;5036104;28;20199;-68
2023/05/28 09:53:53;;;;;;;10.50;4.90;;;;;;;;;;5036375;28;20185;-68
2023/05/28 09:56:20;;;;;;;8.43;4.77;;;;;;;;;;5035994;28;20203;-68
2023/05/28 09:58:49;;;;;;;9.17;4.70;;;;;;;;;;5036139;28;20652;-68
2023/05/28 10:01:16;;;;;;;12.53;5.30;;;;;;;;;;5072117;23;20234;-67
2023/05/28 10:03:47;;;;;;;12.63;4.97;;;;;;;;;;5055558;28;20174;-68
2023/05/28 10:06:16;;;;;;;7.63;5.00;;;;;;;;;;5055329;28;20601;-67
2023/05/28 10:08:43;;;;;;;9.10;4.90;;;;;;;;;;5055195;28;20644;-67
2023/05/28 10:11:10;;;;;;;10.00;5.17;;;;;;;;;;5054008;28;20392;-67
2023/05/28 10:13:36;;;;;;;9.83;5.00;;;;;;;;;;5054410;28;20388;-66
2023/05/28 10:16:02;;;;;;;9.13;5.30;;;;;;;;;;5053857;28;20948;-66
2023/05/28 10:18:29;;;;;;;9.60;4.87;;;;;;;;;;5055182;28;20544;-67
2023/05/28 10:20:55;;;;;;;9.52;5.38;;;;;;;;;;5036149;28;20385;-67
2023/05/28 10:23:22;;;;;;;8.73;4.57;;;;;;;;;;5055416;28;20170;-68
2023/05/28 10:25:48;;;;;;;10.77;4.57;;;;;;;;;;5055596;28;20662;-67
2023/05/28 10:28:15;;;;;;;7.63;4.53;;;;;;;;;;5038010;28;20210;-67
2023/05/28 10:30:41;;;;;;;11.80;5.10;;;;;;;;;;5055200;28;20656;-67
2023/05/28 10:33:17;;;;;;;13.60;5.00;;;;;;;;;;5054788;28;20240;-67
2023/05/28 10:35:53;;;;;;;8.90;4.30;;;;;;;;;;5054684;28;20240;-67
2023/05/28 10:38:19;;;;;;;10.03;4.93;;;;;;;;;;5036826;28;20178;-66
2023/05/28 10:40:46;;;;;;;9.47;4.77;;;;;;;;;;5036749;28;20690;-67
2023/05/28 10:43:30;;;;;;;6.57;4.27;;;;;;;;;;5054771;28;20550;-66
2023/05/28 10:45:56;;;;;;;6.50;4.20;;;;;;;;;;5054890;28;20221;-67
2023/05/28 10:48:23;;;;;;;7.63;4.63;;;;;;;;;;5037144;28;20213;-67
2023/05/28 10:51:00;;;;;;;5.93;4.17;;;;;;;;;;5054554;28;20282;-67
2023/05/28 10:53:26;;;;;;;6.33;4.57;;;;;;;;;;5054931;28;20182;-67
2023/05/28 10:55:53;;;;;;;12.87;4.80;;;;;;;;;;5054734;28;20201;-67
2023/05/28 10:58:29;;;;;;;9.83;5.03;;;;;;;;;;5036571;28;20648;-67
2023/05/28 11:01:01;;;;;;;9.27;4.10;;;;;;;;;;5036349;28;20225;-67
2023/05/28 11:03:43;;;;;;;9.47;4.80;;;;;;;;;;5054379;28;20170;-67
2023/05/28 11:06:10;;;;;;;5.80;4.20;;;;;;;;;;5054085;28;20209;-65
2023/05/28 11:08:43;;;;;;;11.47;5.37;;;;;;;;;;5054492;28;20608;-70
2023/05/28 11:11:11;;;;;;;7.33;4.30;;;;;;;;;;5054243;28;20198;-67
2023/05/28 11:13:37;;;;;;;8.43;4.40;;;;;;;;;;5054486;28;20202;-67
2023/05/28 11:16:11;;;;;;;6.60;4.50;;;;;;;;;;5054077;28;20211;-66
2023/05/28 11:18:37;;;;;;;8.23;4.50;;;;;;;;;;5053959;28;20179;-68
2023/05/28 11:21:07;;;;;;;6.70;4.17;;;;;;;;;;5035957;28;20676;-65
2023/05/28 11:23:34;;;;;;;6.53;4.57;;;;;;;;;;5053967;28;20171;-70
2023/05/28 11:25:59;;;;;;;5.50;4.40;;;;;;;;;;5054093;28;20259;-67
2023/05/28 11:28:26;;;;;;;8.10;3.90;;;;;;;;;;5054190;28;20699;-65
2023/05/28 11:30:52;;;;;;;12.13;4.33;;;;;;;;;;5054241;28;20233;-67
2023/05/28 11:33:18;;;;;;;5.07;3.73;;;;;;;;;;5054241;28;20182;-66
2023/05/28 11:35:44;;;;;;;7.60;4.67;;;;;;;;;;5035942;28;20691;-64
2023/05/28 11:38:10;;;;;;;10.90;4.87;;;;;;;;;;5053807;28;20174;-64
2023/05/28 11:40:36;;;;;;;9.53;4.73;;;;;;;;;;5053705;28;20217;-64
2023/05/28 11:43:04;;;;;;;6.67;4.30;;;;;;;;;;5053933;28;20270;-65
2023/05/28 11:45:36;;;;;;;9.37;4.33;;;;;;;;;;5053781;28;20173;-64
2023/05/28 11:48:02;;;;;;;6.53;4.20;;;;;;;;;;5035715;28;20174;-64
2023/05/28 11:50:28;;;;;;;10.57;5.00;;;;;;;;;;5053212;28;20228;-64
2023/05/28 11:52:54;;;;;;;7.33;4.40;;;;;;;;;;5053299;28;20171;-64
2023/05/28 11:55:20;;;;;;;8.03;3.90;;;;;;;;;;5053348;28;20181;-64
2023/05/28 11:57:56;;;;;;;8.30;4.60;;;;;;;;;;5053536;28;20174;-64
2023/05/28 12:00:31;;;;;;;12.40;4.53;;;;;;;;;;5053552;28;20571;-67
2023/05/28 12:02:57;;;;;;;8.47;4.43;;;;;;;;;;5053816;28;20201;-64
2023/05/28 12:05:23;;;;;;;8.20;4.87;;;;;;;;;;5053851;28;20174;-64
2023/05/28 12:07:50;;;;;;;7.53;4.77;;;;;;;;;;5035376;28;20175;-67
2023/05/28 12:10:19;;;;;;;9.30;4.30;;;;;;;;;;5035247;28;20251;-64
2023/05/28 12:12:52;;;;;;;9.03;5.00;;;;;;;;;;5053342;28;20171;-64
2023/05/28 12:15:18;;;;;;;10.00;4.57;;;;;;;;;;5053062;28;20171;-64
2023/05/28 12:17:47;;;;;;;8.23;4.43;;;;;;;;;;5034424;28;20560;-64
2023/05/28 12:20:13;;;;;;;10.03;4.80;;;;;;;;;;5035169;28;20198;-64
2023/05/28 12:22:39;;;;;;;9.17;5.10;;;;;;;;;;5052962;28;20201;-64
2023/05/28 12:25:06;;;;;;;12.27;5.40;;;;;;;;;;5052893;28;20676;-64
2023/05/28 12:27:32;;;;;;;7.37;4.40;;;;;;;;;;5053074;28;20170;-64
2023/05/28 12:29:58;;;;;;;8.60;4.73;;;;;;;;;;5053039;28;20286;-64
2023/05/28 12:32:25;;;;;;;8.30;5.00;;;;;;;;;;5053718;28;20174;-64
2023/05/28 12:34:53;;;;;;;7.27;4.20;;;;;;;;;;5052886;28;20528;-64
2023/05/28 12:37:19;;;;;;;9.63;4.53;;;;;;;;;;5052982;28;20268;-64
2023/05/28 12:39:45;;;;;;;8.27;4.43;;;;;;;;;;5052816;28;20559;-64
2023/05/28 12:42:11;;;;;;;7.03;4.60;;;;;;;;;;5052920;28;20209;-68
2023/05/28 12:44:37;;;;;;;5.70;4.77;;;;;;;;;;5052909;28;20167;-66
2023/05/28 12:47:03;;;;;;;8.80;4.23;;;;;;;;;;5034939;28;20243;-65
2023/05/28 12:49:29;;;;;;;7.80;4.10;;;;;;;;;;5052669;28;20182;-66
2023/05/28 12:51:54;;;;;;;8.30;4.00;;;;;;;;;;5052608;28;20202;-67
2023/05/28 12:54:21;;;;;;;9.20;4.67;;;;;;;;;;5034960;28;20193;-66
2023/05/28 12:56:47;;;;;;;7.83;4.50;;;;;;;;;;5034874;28;20715;-66
2023/05/28 12:59:33;;;;;;;6.07;4.33;;;;;;;;;;5053146;28;20179;-65
2023/05/28 13:01:59;;;;;;;7.33;4.10;;;;;;;;;;5053374;28;20248;-65
2023/05/28 13:04:25;;;;;;;10.13;4.23;;;;;;;;;;5034721;28;20182;-65
2023/05/28 13:06:51;;;;;;;8.57;4.10;;;;;;;;;;5052536;28;20257;-68
2023/05/28 13:09:18;;;;;;;5.53;4.00;;;;;;;;;;5052471;28;20182;-66
2023/05/28 13:11:44;;;;;;;7.00;4.23;;;;;;;;;;5052445;28;20252;-65
2023/05/28 13:14:10;;;;;;;9.67;4.93;;;;;;;;;;5052808;28;20182;-65
2023/05/28 13:16:36;;;;;;;8.07;4.80;;;;;;;;;;5052218;28;20293;-67
2023/05/28 13:19:03;;;;;;;6.50;4.40;;;;;;;;;;5052308;28;20614;-65
2023/05/28 13:21:32;;;;;;;8.17;4.53;;;;;;;;;;5052968;28;20200;-65
2023/05/28 13:24:01;;;;;;;9.07;4.73;;;;;;;;;;5052511;28;20580;-65
2023/05/28 13:26:28;;;;;;;7.47;4.87;;;;;;;;;;5034796;28;20182;-65
2023/05/28 13:28:54;;;;;;;9.17;4.93;;;;;;;;;;5037410;28;20197;-65
2023/05/28 13:31:20;;;;;;;8.60;4.10;;;;;;;;;;5055906;28;20785;-66
2023/05/28 13:33:46;;;;;;;7.17;4.33;;;;;;;;;;5055811;28;20254;-65
2023/05/28 13:36:12;;;;;;;6.03;4.50;;;;;;;;;;5055894;28;20210;-65
2023/05/28 13:38:38;;;;;;;8.17;4.60;;;;;;;;;;5055781;28;20256;-65
2023/05/28 13:41:04;;;;;;;7.47;4.50;;;;;;;;;;5037727;28;20700;-65
2023/05/28 13:43:37;;;;;;;8.70;5.23;;;;;;;;;;5055599;28;20275;-65
2023/05/28 13:46:03;;;;;;;9.77;5.50;;;;;;;;;;5037681;28;20677;-64
2023/05/28 13:48:29;;;;;;;7.33;4.67;;;;;;;;;;5055506;28;20238;-65
2023/05/28 13:50:55;;;;;;;8.10;5.37;;;;;;;;;;5055640;28;20202;-65
2023/05/28 13:53:20;;;;;;;6.10;4.33;;;;;;;;;;5037717;28;20186;-65
2023/05/28 13:55:46;;;;;;;6.87;4.33;;;;;;;;;;5055324;28;20224;-65
2023/05/28 13:58:12;;;;;;;8.27;4.93;;;;;;;;;;5055680;28;20177;-65
2023/05/28 14:00:38;;;;;;;7.30;4.43;;;;;;;;;;5037229;28;20312;-65
2023/05/28 14:03:05;;;;;;;11.00;4.40;;;;;;;;;;5037297;28;20182;-65
2023/05/28 14:05:31;;;;;;;7.53;4.90;;;;;;;;;;5055359;28;20175;-65
2023/05/28 14:07:57;;;;;;;6.93;3.67;;;;;;;;;;5055612;28;20633;-65
2023/05/28 14:10:22;;;;;;;8.27;4.57;;;;;;;;;;5055145;28;20739;-65
2023/05/28 14:12:52;;;;;;;6.37;3.80;;;;;;;;;;5038019;28;20241;-65
2023/05/28 14:15:18;;;;;;;12.43;5.07;;;;;;;;;;5055090;28;20225;-65
2023/05/28 14:17:44;;;;;;;7.43;4.37;;;;;;;;;;5055020;28;20288;-65
2023/05/28 14:20:10;;;;;;;8.70;4.63;;;;;;;;;;5054905;28;20577;-65
2023/05/28 14:22:36;;;;;;;8.00;3.93;;;;;;;;;;5055078;28;20589;-65
2023/05/28 14:25:02;;;;;;;10.23;4.60;;;;;;;;;;5037182;28;20183;-65
2023/05/28 14:27:28;;;;;;;8.23;5.00;;;;;;;;;;5055319;28;20303;-65
2023/05/28 14:29:54;;;;;;;10.90;4.83;;;;;;;;;;5054609;28;20277;-66